Time;durP1;ratioP1;P1;durP2;ratioP2;P2;SDS_P1;SDS_P2;PMS_P1;PMS_P2;Temp;Humidity;BMP_temperature;BMP_pressure;BME280_temperature;BME280_humidity;BME280_pressure;Samples;Min_cycle;Max_cycle;Signal;HPM_P1;HPM_P2
2021/12/28 00:01:07;;;;;;;53.83;25.70;;;-5.40;99.90;;;;;;4976020;28;20220;-71
2021/12/28 00:03:35;;;;;;;54.13;26.77;;;-5.30;99.90;;;;;;4995348;28;20606;-71
2021/12/28 00:06:02;;;;;;;56.23;27.27;;;-5.30;99.90;;;;;;4995410;28;20238;-70
2021/12/28 00:08:30;;;;;;;56.37;26.43;;;-5.40;99.90;;;;;;4994854;28;20211;-70
2021/12/28 00:10:56;;;;;;;55.27;27.40;;;-5.40;99.90;;;;;;4995471;28;20684;-70
2021/12/28 00:13:24;;;;;;;57.03;27.63;;;-5.40;99.90;;;;;;4995307;28;20214;-71
2021/12/28 00:16:02;;;;;;;59.67;28.17;;;-5.40;99.90;;;;;;4995262;28;20672;-71
2021/12/28 00:18:30;;;;;;;53.47;26.97;;;-5.40;99.90;;;;;;4995706;28;20278;-70
2021/12/28 00:20:59;;;;;;;55.73;27.33;;;-5.30;99.90;;;;;;4995173;28;20227;-71
2021/12/28 00:23:31;;;;;;;51.77;27.33;;;-5.30;99.90;;;;;;4994978;28;20207;-71
2021/12/28 00:25:59;;;;;;;54.97;26.63;;;-5.30;99.90;;;;;;4995332;28;20192;-70
2021/12/28 00:28:26;;;;;;;54.97;28.17;;;-5.30;99.90;;;;;;4995110;28;20208;-69
2021/12/28 00:30:54;;;;;;;54.40;27.73;;;-5.30;99.90;;;;;;4994925;28;20241;-71
2021/12/28 00:33:23;;;;;;;54.20;27.20;;;-5.30;99.90;;;;;;4994645;28;20231;-71
2021/12/28 00:35:52;;;;;;;48.23;25.97;;;-5.30;99.90;;;;;;4994387;28;20200;-70
2021/12/28 00:38:22;;;;;;;48.47;25.53;;;-5.30;99.90;;;;;;4995160;28;20207;-71
2021/12/28 00:40:50;;;;;;;50.03;25.37;;;-5.30;99.90;;;;;;4994757;28;20203;-71
2021/12/28 00:43:19;;;;;;;46.30;25.17;;;-5.20;99.90;;;;;;4995107;28;20571;-71
2021/12/28 00:45:46;;;;;;;40.73;24.20;;;-5.20;99.90;;;;;;4994364;28;20206;-71
2021/12/28 00:48:13;;;;;;;47.17;24.27;;;-5.20;99.90;;;;;;4994997;28;20204;-69
2021/12/28 00:50:41;;;;;;;47.60;23.83;;;-5.20;99.90;;;;;;4994566;28;20227;-68
2021/12/28 00:53:10;;;;;;;44.50;21.97;;;-5.20;99.90;;;;;;4994481;28;20215;-67
2021/12/28 00:55:37;;;;;;;40.97;22.30;;;-5.10;99.90;;;;;;4994497;28;20312;-68
2021/12/28 00:58:04;;;;;;;42.67;23.00;;;-5.20;99.90;;;;;;4993923;28;20215;-69
2021/12/28 01:00:33;;;;;;;47.73;23.13;;;-5.10;99.90;;;;;;4993882;28;20208;-68
2021/12/28 01:03:02;;;;;;;41.50;22.90;;;-5.10;99.90;;;;;;4994618;28;20233;-68
2021/12/28 01:05:29;;;;;;;45.87;23.40;;;-5.10;99.90;;;;;;4993402;28;20568;-69
2021/12/28 01:07:56;;;;;;;44.23;22.20;;;-5.10;99.90;;;;;;4994225;28;20576;-69
2021/12/28 01:10:27;;;;;;;39.20;21.73;;;-5.00;99.90;;;;;;4994688;28;20676;-68
2021/12/28 01:12:55;;;;;;;41.63;22.40;;;-5.00;99.90;;;;;;4994592;28;20555;-67
2021/12/28 01:15:24;;;;;;;39.87;21.63;;;-5.00;99.90;;;;;;4993632;28;20290;-69
2021/12/28 01:17:50;;;;;;;38.87;21.63;;;-5.00;99.90;;;;;;4994096;28;20199;-69
2021/12/28 01:20:17;;;;;;;37.77;20.57;;;-5.00;99.90;;;;;;4993614;28;20214;-67
2021/12/28 01:22:45;;;;;;;38.37;20.37;;;-5.00;99.90;;;;;;4994015;28;20199;-67
2021/12/28 01:25:15;;;;;;;38.90;21.20;;;-5.00;99.90;;;;;;4993511;28;20232;-68
2021/12/28 01:27:44;;;;;;;37.10;21.00;;;-5.00;99.90;;;;;;4993237;28;20210;-66
2021/12/28 01:30:13;;;;;;;39.87;21.63;;;-5.00;99.90;;;;;;4993553;28;20211;-68
2021/12/28 01:32:41;;;;;;;43.40;20.77;;;-5.00;99.90;;;;;;4993869;28;20710;-66
2021/12/28 01:35:11;;;;;;;38.63;21.03;;;-5.00;99.90;;;;;;4993553;28;20204;-67
2021/12/28 01:37:39;;;;;;;39.47;20.97;;;-5.00;99.90;;;;;;4993400;28;20226;-69
2021/12/28 01:40:08;;;;;;;40.57;20.63;;;-5.00;99.90;;;;;;4993094;28;20576;-67
2021/12/28 01:42:35;;;;;;;42.13;22.53;;;-5.10;99.90;;;;;;4993919;28;20575;-67
2021/12/28 01:45:03;;;;;;;39.37;21.17;;;-5.10;99.90;;;;;;4993805;28;20560;-68
2021/12/28 01:47:30;;;;;;;36.33;20.47;;;-5.10;99.90;;;;;;4993377;28;20208;-68
2021/12/28 01:49:56;;;;;;;41.97;21.33;;;-5.10;99.90;;;;;;4993996;28;20213;-67
2021/12/28 01:52:23;;;;;;;36.63;19.60;;;-5.10;99.90;;;;;;4993716;28;20703;-66
2021/12/28 01:54:50;;;;;;;41.40;21.20;;;-5.10;99.90;;;;;;4994104;28;20562;-68
2021/12/28 01:57:20;;;;;;;44.13;22.80;;;-5.10;99.90;;;;;;4993462;28;20223;-70
2021/12/28 01:59:46;;;;;;;45.63;23.83;;;-5.10;99.90;;;;;;4994369;28;20840;-72
2021/12/28 02:02:15;;;;;;;41.53;21.87;;;-5.00;99.90;;;;;;4993269;28;20231;-72
2021/12/28 02:04:41;;;;;;;43.40;22.30;;;-5.00;99.90;;;;;;4993378;28;20211;-71
2021/12/28 02:07:08;;;;;;;40.63;22.43;;;-5.00;99.90;;;;;;4993636;28;20218;-72
2021/12/28 02:09:35;;;;;;;40.50;21.73;;;-5.00;99.90;;;;;;4991986;28;20613;-72
2021/12/28 02:12:02;;;;;;;41.13;22.20;;;-5.00;99.90;;;;;;4993263;28;20695;-71
2021/12/28 02:14:28;;;;;;;45.17;23.60;;;-5.00;99.90;;;;;;4993094;28;20203;-73
2021/12/28 02:16:55;;;;;;;46.67;23.53;;;-5.00;99.90;;;;;;4993375;28;20664;-73
2021/12/28 02:19:23;;;;;;;41.53;22.57;;;-5.00;99.90;;;;;;4993546;28;20207;-73
2021/12/28 02:21:53;;;;;;;44.03;23.20;;;-4.90;99.90;;;;;;4993534;28;20207;-72
2021/12/28 02:24:19;;;;;;;44.00;22.97;;;-4.90;99.90;;;;;;4993492;28;20696;-73
2021/12/28 02:26:46;;;;;;;43.90;23.03;;;-4.90;99.90;;;;;;4993145;28;20671;-73
2021/12/28 02:29:13;;;;;;;43.43;22.57;;;-4.90;99.90;;;;;;4993195;28;20208;-73
2021/12/28 02:31:40;;;;;;;40.27;21.80;;;-4.90;99.90;;;;;;4994326;28;20223;-66
2021/12/28 02:34:07;;;;;;;40.83;21.13;;;-4.90;99.90;;;;;;4993285;28;20207;-65
2021/12/28 02:36:34;;;;;;;48.07;23.13;;;-4.90;99.90;;;;;;4992428;28;20211;-63
2021/12/28 02:39:02;;;;;;;44.93;22.33;;;-4.90;99.90;;;;;;4993265;28;20203;-71
2021/12/28 02:41:29;;;;;;;42.37;23.23;;;-5.00;99.90;;;;;;4993841;28;20199;-70
2021/12/28 02:44:04;;;;;;;44.13;22.43;;;-5.00;99.90;;;;;;4993195;28;20218;-66
2021/12/28 02:46:31;;;;;;;43.80;23.40;;;-5.00;99.90;;;;;;4992522;28;20191;-67
2021/12/28 02:48:58;;;;;;;43.53;22.93;;;-5.00;99.90;;;;;;4993019;28;20207;-68
2021/12/28 02:51:25;;;;;;;44.10;21.93;;;-5.00;99.90;;;;;;4992277;28;20231;-66
2021/12/28 02:53:52;;;;;;;43.57;23.73;;;-5.00;99.90;;;;;;4992864;28;20305;-67
2021/12/28 02:56:21;;;;;;;42.73;23.17;;;-5.00;99.90;;;;;;4993305;28;20212;-69
2021/12/28 02:58:51;;;;;;;46.97;24.73;;;-5.00;99.90;;;;;;4992980;28;20289;-66
2021/12/28 03:01:21;;;;;;;45.77;22.77;;;-5.00;99.90;;;;;;4993227;28;20227;-72
2021/12/28 03:03:50;;;;;;;45.13;23.80;;;-5.00;99.90;;;;;;4994971;28;20214;-66
2021/12/28 03:06:19;;;;;;;46.40;23.90;;;-5.00;99.90;;;;;;4993045;28;20697;-72
2021/12/28 03:08:51;;;;;;;47.93;22.83;;;-5.00;99.90;;;;;;4992598;28;20219;-73
2021/12/28 03:11:20;;;;;;;43.83;23.33;;;-5.00;99.90;;;;;;4993045;28;20218;-66
2021/12/28 03:13:50;;;;;;;43.70;23.57;;;-5.00;99.90;;;;;;4994716;28;20207;-73
2021/12/28 03:16:19;;;;;;;45.63;22.47;;;-5.00;99.90;;;;;;4994456;28;20205;-68
2021/12/28 03:18:46;;;;;;;40.43;21.30;;;-5.00;99.90;;;;;;4994901;28;20555;-71
2021/12/28 03:21:14;;;;;;;42.47;21.00;;;-5.00;99.90;;;;;;4992985;28;20211;-70
2021/12/28 03:23:42;;;;;;;43.83;22.70;;;-5.00;99.90;;;;;;4997982;28;20211;-72
2021/12/28 03:26:12;;;;;;;44.97;22.97;;;-5.00;99.90;;;;;;4996343;28;20295;-68
2021/12/28 03:28:43;;;;;;;46.63;24.10;;;-5.00;99.90;;;;;;4995860;28;20250;-68
2021/12/28 03:31:13;;;;;;;42.30;22.50;;;-4.90;99.90;;;;;;4995698;28;20214;-66
2021/12/28 03:33:42;;;;;;;43.23;21.10;;;-5.00;99.90;;;;;;4996109;28;20280;-67
2021/12/28 03:36:10;;;;;;;40.20;21.10;;;-5.00;99.90;;;;;;4995830;28;20687;-66
2021/12/28 03:38:39;;;;;;;41.50;22.37;;;-4.90;99.90;;;;;;4995928;28;20259;-66
2021/12/28 03:41:08;;;;;;;39.53;21.13;;;-4.90;99.90;;;;;;4995455;28;20609;-67
2021/12/28 03:43:43;;;;;;;38.20;20.57;;;-5.00;99.90;;;;;;4996614;28;20222;-65
2021/12/28 03:46:10;;;;;;;39.40;21.10;;;-5.00;99.90;;;;;;4995447;28;20199;-64
2021/12/28 03:48:38;;;;;;;40.33;21.40;;;-5.00;99.90;;;;;;4996325;28;20230;-65
2021/12/28 03:51:06;;;;;;;41.37;21.73;;;-4.90;99.90;;;;;;4998853;28;20214;-67
2021/12/28 03:53:33;;;;;;;38.50;20.03;;;-4.90;99.90;;;;;;4996860;28;20266;-66
2021/12/28 03:56:00;;;;;;;40.03;20.63;;;-4.90;99.90;;;;;;4995456;28;20208;-65
2021/12/28 03:58:27;;;;;;;42.23;20.40;;;-5.00;99.90;;;;;;4997592;28;20239;-68
2021/12/28 04:00:56;;;;;;;40.43;21.50;;;-4.90;99.90;;;;;;4995708;28;20307;-66
2021/12/28 04:03:22;;;;;;;44.27;21.73;;;-4.90;99.90;;;;;;4996830;28;20203;-66
2021/12/28 04:05:51;;;;;;;40.47;20.63;;;-4.90;99.90;;;;;;4995813;28;20214;-66
2021/12/28 04:08:22;;;;;;;43.17;21.90;;;-4.90;99.90;;;;;;4995922;28;20664;-67
2021/12/28 04:10:53;;;;;;;38.80;20.73;;;-4.90;99.90;;;;;;4995458;28;20195;-66
2021/12/28 04:13:22;;;;;;;36.10;20.07;;;-4.90;99.90;;;;;;4997205;28;20656;-69
2021/12/28 04:15:49;;;;;;;40.37;20.97;;;-4.90;99.90;;;;;;4994613;28;20538;-69
2021/12/28 04:18:21;;;;;;;38.23;21.43;;;-4.90;99.90;;;;;;4994754;28;20230;-68
2021/12/28 04:20:50;;;;;;;40.87;21.83;;;-4.90;99.90;;;;;;4994859;28;20719;-68
2021/12/28 04:23:17;;;;;;;37.83;20.03;;;-4.90;99.90;;;;;;4994349;28;20199;-69
2021/12/28 04:25:44;;;;;;;39.43;22.07;;;-4.90;99.90;;;;;;4994747;28;20303;-69
2021/12/28 04:28:11;;;;;;;43.07;21.77;;;-4.90;99.90;;;;;;4994518;28;20209;-69
2021/12/28 04:30:38;;;;;;;40.47;20.97;;;-4.90;99.90;;;;;;4995142;28;20218;-70
2021/12/28 04:33:05;;;;;;;40.33;20.77;;;-4.90;99.90;;;;;;4995040;28;20255;-66
2021/12/28 04:35:36;;;;;;;40.87;20.73;;;-4.90;99.90;;;;;;4997065;28;20212;-71
2021/12/28 04:38:03;;;;;;;40.23;20.43;;;-4.90;99.90;;;;;;4994563;28;20231;-67
2021/12/28 04:40:30;;;;;;;40.27;20.83;;;-4.90;99.90;;;;;;4995135;28;20516;-69
2021/12/28 04:42:57;;;;;;;40.50;20.60;;;-4.90;99.90;;;;;;4995711;28;20223;-64
2021/12/28 04:45:24;;;;;;;39.83;21.00;;;-4.90;99.90;;;;;;4994705;28;20230;-64
2021/12/28 04:47:51;;;;;;;38.97;20.97;;;-4.80;99.90;;;;;;4994447;28;20258;-64
2021/12/28 04:50:18;;;;;;;39.83;20.57;;;-4.80;99.90;;;;;;4994479;28;20207;-64
2021/12/28 04:52:46;;;;;;;45.97;22.10;;;-4.80;99.90;;;;;;4994548;28;20235;-64
2021/12/28 04:55:16;;;;;;;37.07;19.90;;;-4.90;99.90;;;;;;4994214;28;20772;-67
2021/12/28 04:57:43;;;;;;;40.97;21.60;;;-4.90;99.90;;;;;;4994531;28;20571;-66
2021/12/28 05:00:13;;;;;;;40.57;20.70;;;-4.90;99.90;;;;;;4993604;28;20231;-66
2021/12/28 05:02:40;;;;;;;42.13;20.47;;;-4.90;99.90;;;;;;4996390;28;20267;-75
2021/12/28 05:05:08;;;;;;;39.00;20.17;;;-4.90;99.90;;;;;;4997180;28;20218;-66
2021/12/28 05:07:35;;;;;;;40.60;22.33;;;-4.90;99.90;;;;;;4996050;28;20230;-69
2021/12/28 05:10:04;;;;;;;38.50;21.13;;;-4.90;99.90;;;;;;4996215;28;20207;-68
2021/12/28 05:12:31;;;;;;;42.93;20.93;;;-4.90;99.90;;;;;;4996401;28;20318;-72
2021/12/28 05:14:59;;;;;;;38.80;20.87;;;-4.90;99.90;;;;;;4994470;28;20209;-69
2021/12/28 05:17:26;;;;;;;42.70;21.00;;;-4.90;99.90;;;;;;4994763;28;20207;-70
2021/12/28 05:19:53;;;;;;;41.93;22.07;;;-4.90;99.90;;;;;;4993202;28;20212;-70
2021/12/28 05:22:23;;;;;;;41.30;22.03;;;-4.90;99.90;;;;;;4996299;28;20664;-67
2021/12/28 05:24:50;;;;;;;43.07;23.33;;;-4.90;99.90;;;;;;4998433;28;20182;-66
2021/12/28 05:27:19;;;;;;;43.10;22.27;;;-4.90;99.90;;;;;;4995991;28;20227;-68
2021/12/28 05:29:46;;;;;;;43.37;22.63;;;-4.90;99.90;;;;;;4996438;28;20583;-68
2021/12/28 05:32:13;;;;;;;47.03;23.10;;;-4.90;99.90;;;;;;4993983;28;20231;-67
2021/12/28 05:34:41;;;;;;;44.50;22.70;;;-5.00;99.90;;;;;;4995063;28;20207;-72
2021/12/28 05:37:08;;;;;;;41.17;22.67;;;-5.00;99.90;;;;;;4995363;28;20549;-69
2021/12/28 05:39:36;;;;;;;43.13;22.50;;;-5.00;99.90;;;;;;4995089;28;20227;-74
2021/12/28 05:42:03;;;;;;;40.07;21.57;;;-5.00;99.90;;;;;;4994942;28;20286;-73
2021/12/28 05:44:32;;;;;;;42.47;22.93;;;-5.00;99.90;;;;;;4994748;28;20243;-73
2021/12/28 05:46:58;;;;;;;45.77;23.47;;;-5.00;99.90;;;;;;4995476;28;20216;-73
2021/12/28 05:49:26;;;;;;;40.47;21.77;;;-5.00;99.90;;;;;;4994457;28;20203;-69
2021/12/28 05:51:53;;;;;;;42.53;22.97;;;-5.10;99.90;;;;;;4994725;28;20250;-66
2021/12/28 05:54:20;;;;;;;46.03;23.57;;;-5.10;99.90;;;;;;4993839;28;20211;-66
2021/12/28 05:56:48;;;;;;;46.80;22.77;;;-5.10;99.90;;;;;;4995007;28;20211;-68
2021/12/28 05:59:15;;;;;;;46.90;23.27;;;-5.10;99.90;;;;;;4993253;28;20242;-68
2021/12/28 06:01:43;;;;;;;42.23;23.53;;;-5.10;99.90;;;;;;4993521;28;20219;-69
2021/12/28 06:04:11;;;;;;;48.57;23.73;;;-5.20;99.90;;;;;;4993516;28;20218;-66
2021/12/28 06:06:38;;;;;;;41.87;23.73;;;-5.20;99.90;;;;;;4993359;28;20207;-69
2021/12/28 06:09:04;;;;;;;46.17;23.00;;;-5.20;99.90;;;;;;4993307;28;20214;-65
2021/12/28 06:11:31;;;;;;;46.10;22.73;;;-5.20;99.90;;;;;;4993435;28;20207;-68
2021/12/28 06:13:58;;;;;;;43.13;22.70;;;-5.20;99.90;;;;;;4992743;28;20569;-68
2021/12/28 06:16:25;;;;;;;46.37;23.50;;;-5.20;99.90;;;;;;4993427;28;20655;-71
2021/12/28 06:18:53;;;;;;;41.80;23.37;;;-5.20;99.90;;;;;;4992988;28;22367;-67
2021/12/28 06:21:20;;;;;;;46.87;23.57;;;-5.20;99.90;;;;;;4991938;28;20208;-71
2021/12/28 06:23:47;;;;;;;46.50;23.37;;;-5.20;99.90;;;;;;4993170;28;20199;-71
2021/12/28 06:26:13;;;;;;;47.00;22.77;;;-5.30;99.90;;;;;;4996391;28;20219;-72
2021/12/28 06:28:40;;;;;;;47.63;23.40;;;-5.20;99.90;;;;;;4994653;28;20218;-71
2021/12/28 06:31:07;;;;;;;42.53;22.17;;;-5.30;99.90;;;;;;4993122;28;20211;-70
2021/12/28 06:33:34;;;;;;;47.67;23.37;;;-5.30;99.90;;;;;;4993562;28;20231;-72
2021/12/28 06:36:05;;;;;;;43.13;23.30;;;-5.30;99.90;;;;;;4993817;28;20250;-74
2021/12/28 06:38:32;;;;;;;42.90;21.83;;;-5.30;99.90;;;;;;4993318;28;20199;-73
2021/12/28 06:40:59;;;;;;;41.80;22.17;;;-5.40;99.90;;;;;;4993076;28;20299;-73
2021/12/28 06:43:25;;;;;;;43.30;22.57;;;-5.40;99.90;;;;;;4992592;28;20212;-65
2021/12/28 06:45:55;;;;;;;44.73;22.60;;;-5.40;99.90;;;;;;4989777;28;20221;-63
2021/12/28 06:48:22;;;;;;;44.83;22.77;;;-5.40;99.90;;;;;;4991765;28;20211;-63
2021/12/28 06:50:49;;;;;;;41.47;22.20;;;-5.30;99.90;;;;;;4990982;28;20203;-62
2021/12/28 06:53:17;;;;;;;41.20;21.63;;;-5.30;99.90;;;;;;4992309;28;20715;-64
2021/12/28 06:55:44;;;;;;;37.83;21.10;;;-5.30;99.90;;;;;;4990687;28;20207;-63
2021/12/28 06:58:11;;;;;;;45.73;21.30;;;-5.30;99.90;;;;;;4992649;28;20273;-63
2021/12/28 07:00:39;;;;;;;45.57;23.50;;;-5.30;99.90;;;;;;4992864;28;20235;-64
2021/12/28 07:03:06;;;;;;;40.53;21.97;;;-5.30;99.90;;;;;;4992038;28;20203;-64
2021/12/28 07:05:34;;;;;;;43.13;21.50;;;-5.30;99.90;;;;;;4993820;28;20314;-64
2021/12/28 07:08:01;;;;;;;47.03;24.10;;;-5.40;99.90;;;;;;4992775;28;20274;-63
2021/12/28 07:10:30;;;;;;;44.57;22.77;;;-5.40;99.90;;;;;;4994183;28;20592;-66
2021/12/28 07:12:57;;;;;;;43.37;23.20;;;-5.40;99.90;;;;;;4993278;28;20231;-69
2021/12/28 07:15:24;;;;;;;41.97;23.50;;;-5.30;99.90;;;;;;4992315;28;20237;-66
2021/12/28 07:17:51;;;;;;;42.60;22.93;;;-5.30;99.90;;;;;;4991265;28;20204;-67
2021/12/28 07:20:19;;;;;;;44.13;23.57;;;-5.30;99.90;;;;;;4992180;28;20290;-66
2021/12/28 07:22:46;;;;;;;45.83;23.07;;;-5.30;99.90;;;;;;4992612;28;20223;-66
2021/12/28 07:25:13;;;;;;;44.67;22.37;;;-5.30;99.90;;;;;;4991422;28;20214;-66
2021/12/28 07:27:41;;;;;;;42.77;22.00;;;-5.20;99.90;;;;;;4991733;28;20217;-67
2021/12/28 07:30:11;;;;;;;39.60;21.07;;;-5.20;99.90;;;;;;4992582;28;20249;-66
2021/12/28 07:32:38;;;;;;;45.93;22.60;;;-5.20;99.90;;;;;;4991399;28;20211;-66
2021/12/28 07:35:06;;;;;;;48.23;22.93;;;-5.30;99.90;;;;;;4992159;28;20215;-66
2021/12/28 07:37:33;;;;;;;44.60;22.73;;;-5.20;99.90;;;;;;4991385;28;20657;-68
2021/12/28 07:40:00;;;;;;;45.93;22.60;;;-5.20;99.90;;;;;;4992043;28;20206;-65
2021/12/28 07:42:27;;;;;;;46.27;23.33;;;-5.20;99.90;;;;;;4991793;28;20204;-67
2021/12/28 07:44:55;;;;;;;42.53;21.87;;;-5.10;99.90;;;;;;4991578;28;20216;-65
2021/12/28 07:47:22;;;;;;;42.73;22.80;;;-5.10;99.90;;;;;;4991514;28;20570;-65
2021/12/28 07:49:49;;;;;;;45.47;22.30;;;-5.10;99.90;;;;;;4992015;28;20212;-66
2021/12/28 07:52:16;;;;;;;43.40;22.33;;;-5.10;99.90;;;;;;4991608;28;20938;-66
2021/12/28 07:54:42;;;;;;;49.63;23.40;;;-5.00;99.90;;;;;;4989707;28;20237;-66
2021/12/28 07:57:09;;;;;;;47.10;23.70;;;-5.00;99.90;;;;;;4990706;28;20555;-65
2021/12/28 07:59:36;;;;;;;45.73;22.60;;;-4.90;99.90;;;;;;4988059;28;20607;-67
2021/12/28 08:02:04;;;;;;;44.87;23.47;;;-4.90;99.90;;;;;;4991009;28;20207;-68
2021/12/28 08:04:31;;;;;;;42.70;22.57;;;-4.90;99.90;;;;;;4991225;28;20196;-66
2021/12/28 08:06:58;;;;;;;39.40;19.80;;;-4.80;99.90;;;;;;4991733;28;20203;-66
2021/12/28 08:09:25;;;;;;;44.27;21.67;;;-4.90;99.90;;;;;;4994296;28;20534;-65
2021/12/28 08:11:52;;;;;;;41.13;20.37;;;-4.90;99.90;;;;;;4995218;28;20199;-65
2021/12/28 08:14:19;;;;;;;40.57;19.53;;;-4.90;99.90;;;;;;4995278;28;20227;-66
2021/12/28 08:16:46;;;;;;;38.87;20.10;;;-4.80;99.90;;;;;;4995990;28;20227;-66
2021/12/28 08:19:14;;;;;;;41.57;20.53;;;-4.80;99.90;;;;;;4995470;28;20210;-67
2021/12/28 08:21:41;;;;;;;41.13;21.13;;;-4.80;99.90;;;;;;4995159;28;20214;-65
2021/12/28 08:24:08;;;;;;;44.77;23.57;;;-4.80;99.90;;;;;;4995348;28;20660;-65
2021/12/28 08:26:35;;;;;;;41.20;21.50;;;-4.70;99.90;;;;;;4994669;28;20668;-66
2021/12/28 08:29:02;;;;;;;44.57;20.57;;;-4.70;99.90;;;;;;4995058;28;20203;-64
2021/12/28 08:31:29;;;;;;;45.27;21.63;;;-4.70;99.90;;;;;;4994416;28;20325;-64
2021/12/28 08:33:55;;;;;;;37.67;20.10;;;-4.70;99.90;;;;;;4994578;28;20219;-67
2021/12/28 08:36:24;;;;;;;38.10;20.90;;;-4.70;99.90;;;;;;4994556;28;20680;-66
2021/12/28 08:38:50;;;;;;;41.03;20.83;;;-4.70;99.90;;;;;;4994737;28;20218;-65
2021/12/28 08:41:18;;;;;;;43.07;22.30;;;-4.70;99.90;;;;;;4994761;28;20207;-66
2021/12/28 08:43:45;;;;;;;44.43;22.07;;;-4.70;99.90;;;;;;4994672;28;20219;-66
2021/12/28 08:46:12;;;;;;;44.70;22.60;;;-4.70;99.90;;;;;;4994977;28;20548;-67
2021/12/28 08:48:38;;;;;;;50.77;24.10;;;-4.60;99.90;;;;;;4994677;28;20551;-67
2021/12/28 08:51:05;;;;;;;51.97;25.63;;;-4.60;99.90;;;;;;4994922;28;20207;-66
2021/12/28 08:53:33;;;;;;;41.87;21.40;;;-4.60;99.90;;;;;;4994176;28;20223;-66
2021/12/28 08:56:00;;;;;;;49.63;24.70;;;-4.60;99.90;;;;;;4994616;28;20224;-66
2021/12/28 08:58:27;;;;;;;50.23;22.30;;;-4.60;99.90;;;;;;4993776;28;20259;-65
2021/12/28 09:00:54;;;;;;;40.33;19.93;;;-4.60;99.90;;;;;;4994821;28;20218;-65
2021/12/28 09:03:21;;;;;;;43.40;20.70;;;-4.60;99.90;;;;;;4994288;28;20204;-67
2021/12/28 09:05:47;;;;;;;42.93;21.87;;;-4.60;99.90;;;;;;4993834;28;20207;-65
2021/12/28 09:08:17;;;;;;;43.43;22.17;;;-4.50;99.90;;;;;;4991846;28;20203;-66
2021/12/28 09:10:46;;;;;;;43.67;22.20;;;-4.50;99.90;;;;;;4989344;28;20779;-66
2021/12/28 09:13:14;;;;;;;40.83;21.23;;;-4.50;99.90;;;;;;4988895;28;20219;-65
2021/12/28 09:15:41;;;;;;;42.90;21.23;;;-4.50;99.90;;;;;;4991358;28;20255;-66
2021/12/28 09:18:09;;;;;;;48.50;22.63;;;-4.50;99.90;;;;;;4992590;28;20206;-68
2021/12/28 09:20:36;;;;;;;46.27;22.40;;;-4.50;99.90;;;;;;4992386;28;20943;-67
2021/12/28 09:23:03;;;;;;;43.60;22.43;;;-4.50;99.90;;;;;;4993509;28;20580;-66
2021/12/28 09:25:30;;;;;;;45.53;22.13;;;-4.50;99.90;;;;;;4989565;28;20234;-66
2021/12/28 09:27:58;;;;;;;41.10;21.07;;;-4.50;99.90;;;;;;4992826;28;20204;-66
2021/12/28 09:30:25;;;;;;;42.77;21.27;;;-4.50;99.90;;;;;;4993253;28;20214;-66
2021/12/28 09:32:52;;;;;;;47.57;23.13;;;-4.50;99.90;;;;;;4991801;28;20222;-67
2021/12/28 09:35:19;;;;;;;48.90;23.57;;;-4.50;99.90;;;;;;4991778;28;20227;-66
2021/12/28 09:37:46;;;;;;;47.80;21.50;;;-4.40;99.90;;;;;;4991605;28;20221;-66
2021/12/28 09:40:14;;;;;;;45.07;21.80;;;-4.40;99.90;;;;;;4990365;28;20203;-66
2021/12/28 09:42:42;;;;;;;44.30;23.03;;;-4.40;99.90;;;;;;4993058;28;20203;-66
2021/12/28 09:45:13;;;;;;;47.97;21.77;;;-4.40;99.90;;;;;;4993050;28;20295;-66
2021/12/28 09:47:42;;;;;;;44.77;23.57;;;-4.40;99.90;;;;;;4991879;28;20202;-67
2021/12/28 09:50:12;;;;;;;48.17;21.77;;;-4.40;99.90;;;;;;4993074;28;20207;-67
2021/12/28 09:52:39;;;;;;;52.80;23.30;;;-4.30;99.90;;;;;;4993768;28;20199;-65
2021/12/28 09:55:07;;;;;;;45.83;20.70;;;-4.30;99.90;;;;;;4993512;28;20231;-66
2021/12/28 09:57:34;;;;;;;46.73;22.93;;;-4.30;99.90;;;;;;4993806;28;20203;-65
2021/12/28 10:00:01;;;;;;;50.97;23.50;;;-4.30;99.90;;;;;;4992553;28;20707;-65
2021/12/28 10:02:29;;;;;;;42.00;21.87;;;-4.30;99.90;;;;;;4992319;28;20254;-67
2021/12/28 10:04:59;;;;;;;43.37;21.30;;;-4.30;99.90;;;;;;4993387;28;20230;-66
2021/12/28 10:07:28;;;;;;;49.37;22.87;;;-4.30;99.90;;;;;;4992860;28;20211;-64
2021/12/28 10:09:56;;;;;;;42.13;21.43;;;-4.40;99.90;;;;;;4992964;28;20207;-64
2021/12/28 10:12:31;;;;;;;46.17;21.63;;;-4.40;99.90;;;;;;4993187;28;20303;-67
2021/12/28 10:15:01;;;;;;;46.27;23.20;;;-4.40;99.90;;;;;;4992898;28;20223;-66
2021/12/28 10:17:33;;;;;;;41.90;21.17;;;-4.50;99.90;;;;;;4992979;28;20222;-66
2021/12/28 10:20:05;;;;;;;46.63;21.63;;;-4.50;99.90;;;;;;4993448;28;20526;-67
2021/12/28 10:22:34;;;;;;;41.97;20.10;;;-4.50;99.90;;;;;;4992529;28;20199;-65
2021/12/28 10:25:05;;;;;;;48.00;21.83;;;-4.60;99.90;;;;;;4993075;28;20208;-64
2021/12/28 10:27:33;;;;;;;43.27;21.47;;;-4.60;99.90;;;;;;4992894;28;20199;-66
2021/12/28 10:30:13;;;;;;;43.00;21.37;;;-4.60;99.90;;;;;;4992167;28;20203;-65
2021/12/28 10:32:42;;;;;;;43.10;21.63;;;-4.60;99.90;;;;;;4993055;28;20196;-66
2021/12/28 10:35:12;;;;;;;43.13;21.73;;;-4.60;99.90;;;;;;4992283;28;20223;-65
2021/12/28 10:37:42;;;;;;;43.23;21.93;;;-4.60;99.90;;;;;;4992633;28;20609;-66
2021/12/28 10:40:12;;;;;;;41.10;20.97;;;-4.60;99.90;;;;;;4992273;28;20624;-65
2021/12/28 10:42:52;;;;;;;44.90;22.00;;;-4.60;99.90;;;;;;4992649;28;20531;-65
2021/12/28 10:45:22;;;;;;;43.90;21.30;;;-4.60;99.90;;;;;;4992092;28;20192;-65
2021/12/28 10:47:52;;;;;;;56.37;26.13;;;-4.60;99.90;;;;;;4992650;28;20207;-66
2021/12/28 10:50:31;;;;;;;48.50;22.53;;;-4.60;99.90;;;;;;4992815;28;20207;-67
2021/12/28 10:53:10;;;;;;;47.23;22.67;;;-4.60;99.90;;;;;;4992424;28;20414;-65
2021/12/28 10:55:38;;;;;;;46.83;21.03;;;-4.60;99.90;;;;;;4992077;28;20211;-64
2021/12/28 10:58:05;;;;;;;40.70;20.57;;;-4.50;99.90;;;;;;4993534;28;20223;-68
2021/12/28 11:00:35;;;;;;;45.13;22.07;;;-4.60;99.90;;;;;;4983913;28;20529;-66
2021/12/28 11:03:26;;;;;;;43.87;21.07;;;-4.60;99.90;;;;;;4992835;28;20218;-64
2021/12/28 11:05:54;;;;;;;50.37;21.70;;;-4.50;99.90;;;;;;4992625;28;20199;-62
2021/12/28 11:08:23;;;;;;;45.43;22.73;;;-4.50;99.90;;;;;;4993410;28;20207;-62
2021/12/28 11:10:52;;;;;;;44.47;20.37;;;-4.50;99.90;;;;;;4992638;28;20211;-64
2021/12/28 11:13:21;;;;;;;44.57;21.50;;;-4.60;99.90;;;;;;4994247;28;20204;-71
2021/12/28 11:15:48;;;;;;;44.00;22.10;;;-4.60;99.90;;;;;;4992563;28;20683;-71
2021/12/28 11:18:22;;;;;;;44.63;20.77;;;-4.60;99.90;;;;;;4991318;28;20679;-70
2021/12/28 11:20:50;;;;;;;42.70;21.33;;;-4.60;99.90;;;;;;4991424;28;20199;-67
2021/12/28 11:23:19;;;;;;;45.33;21.97;;;-4.70;99.90;;;;;;4992678;28;20689;-67
2021/12/28 11:25:46;;;;;;;41.10;21.13;;;-4.70;99.90;;;;;;4994687;28;20649;-65
2021/12/28 11:28:18;;;;;;;38.80;20.40;;;-4.70;99.90;;;;;;4992585;28;20203;-66
2021/12/28 11:31:02;;;;;;;41.13;20.07;;;-4.80;99.90;;;;;;4993330;28;20695;-66
2021/12/28 11:33:53;;;;;;;46.63;21.40;;;-4.70;99.90;;;;;;4992093;28;20212;-64
2021/12/28 11:36:22;;;;;;;46.40;21.70;;;-4.70;99.90;;;;;;4992554;28;20648;-65
2021/12/28 11:38:50;;;;;;;41.37;20.90;;;-4.60;99.90;;;;;;4993822;28;20207;-65
2021/12/28 11:41:17;;;;;;;41.03;20.57;;;-4.70;99.90;;;;;;4991283;28;20204;-66
2021/12/28 11:43:45;;;;;;;35.57;18.87;;;-4.70;99.90;;;;;;4994833;28;20564;-65
2021/12/28 11:46:12;;;;;;;45.73;20.63;;;-4.70;99.90;;;;;;4995025;28;20203;-67
2021/12/28 11:48:42;;;;;;;44.67;20.07;;;-4.70;99.90;;;;;;4995528;28;20298;-66
2021/12/28 11:51:10;;;;;;;42.53;20.43;;;-4.70;99.90;;;;;;4995391;28;20207;-64
2021/12/28 11:53:41;;;;;;;39.73;19.53;;;-4.70;99.90;;;;;;4993028;28;20215;-67
2021/12/28 11:56:10;;;;;;;40.73;20.50;;;-4.60;99.90;;;;;;4983116;28;20211;-64
2021/12/28 11:59:02;;;;;;;39.37;19.67;;;-4.60;99.90;;;;;;4986380;28;20245;-64
2021/12/28 12:01:59;;;;;;;38.00;19.73;;;-4.60;99.90;;;;;;4979682;28;20319;-64
2021/12/28 12:04:48;;;;;;;40.00;18.83;;;-4.70;99.90;;;;;;4990770;28;20203;-65
2021/12/28 12:07:37;;;;;;;42.43;20.53;;;-4.70;99.90;;;;;;4989562;28;20204;-66
2021/12/28 12:10:11;;;;;;;37.70;20.17;;;-4.70;99.90;;;;;;4991947;28;20195;-66
2021/12/28 12:13:25;;;;;;;38.07;18.00;;;-4.70;99.90;;;;;;4990483;28;20804;-65
2021/12/28 12:15:55;;;;;;;39.70;19.20;;;-4.70;99.90;;;;;;4965026;28;20573;-66
2021/12/28 12:18:25;;;;;;;42.57;19.90;;;-4.70;99.90;;;;;;4989189;28;20598;-65
2021/12/28 12:20:59;;;;;;;43.27;20.43;;;-4.70;99.90;;;;;;5006184;28;20227;-66
2021/12/28 12:23:29;;;;;;;47.07;19.83;;;-4.60;99.90;;;;;;4994831;28;20611;-68
2021/12/28 12:26:01;;;;;;;36.13;18.27;;;-4.60;99.90;;;;;;4993259;28;20206;-64
2021/12/28 12:28:48;;;;;;;42.70;19.03;;;-4.60;99.90;;;;;;4994425;28;20707;-68
2021/12/28 12:31:27;;;;;;;45.43;18.53;;;-4.70;99.90;;;;;;4994465;28;20636;-66
2021/12/28 12:33:55;;;;;;;39.63;18.13;;;-4.70;99.90;;;;;;4994652;28;20195;-67
2021/12/28 12:36:30;;;;;;;41.50;19.50;;;-4.60;99.90;;;;;;4994932;28;20273;-66